sensor_id;sensor_type;location;lat;lon;timestamp;pressure;altitude;pressure_sealevel;temperature;humidity
49689;BME280;70518;51.400;7.428;2023-12-29T00:00:29;158493.16;;;17.61;51.27
49689;BME280;70518;51.400;7.428;2023-12-29T00:02:54;158459.47;;;17.48;51.39
49689;BME280;70518;51.400;7.428;2023-12-29T00:05:21;158477.66;;;17.55;51.41
49689;BME280;70518;51.400;7.428;2023-12-29T00:07:46;158473.72;;;17.53;51.63
49689;BME280;70518;51.400;7.428;2023-12-29T00:10:12;158517.78;;;17.70;50.95
49689;BME280;70518;51.400;7.428;2023-12-29T00:12:37;158502.25;;;17.64;51.03
49689;BME280;70518;51.400;7.428;2023-12-29T00:15:02;158498.38;;;17.63;51.18
49689;BME280;70518;51.400;7.428;2023-12-29T00:17:27;158528.19;;;17.74;50.90
49689;BME280;70518;51.400;7.428;2023-12-29T00:19:53;158539.81;;;17.79;51.01
49689;BME280;70518;51.400;7.428;2023-12-29T00:22:18;158521.72;;;17.72;51.01
49689;BME280;70518;51.400;7.428;2023-12-29T00:24:44;158530.78;;;17.75;51.07
49689;BME280;70518;51.400;7.428;2023-12-29T00:27:09;158547.59;;;17.82;50.59
49689;BME280;70518;51.400;7.428;2023-12-29T00:29:34;158521.72;;;17.72;51.22
49689;BME280;70518;51.400;7.428;2023-12-29T00:31:59;158519.09;;;17.71;51.45
49689;BME280;70518;51.400;7.428;2023-12-29T00:34:28;158555.38;;;17.85;50.80
49689;BME280;70518;51.400;7.428;2023-12-29T00:36:53;158565.75;;;17.89;50.89
49689;BME280;70518;51.400;7.428;2023-12-29T00:39:18;158548.91;;;17.83;51.31
49689;BME280;70518;51.400;7.428;2023-12-29T00:41:43;158587.78;;;17.98;50.53
49689;BME280;70518;51.400;7.428;2023-12-29T00:44:09;158594.25;;;18.00;50.77
49689;BME280;70518;51.400;7.428;2023-12-29T00:46:34;158622.75;;;18.11;50.20
49689;BME280;70518;51.400;7.428;2023-12-29T00:48:59;158595.56;;;18.01;50.69
49689;BME280;70518;51.400;7.428;2023-12-29T00:51:24;158583.91;;;17.96;50.82
49689;BME280;70518;51.400;7.428;2023-12-29T00:53:49;158603.34;;;18.04;50.51
49689;BME280;70518;51.400;7.428;2023-12-29T00:56:15;158569.63;;;17.91;51.12
49689;BME280;70518;51.400;7.428;2023-12-29T00:58:40;158581.31;;;17.95;51.04
49689;BME280;70518;51.400;7.428;2023-12-29T01:01:06;158605.94;;;18.05;50.67
49689;BME280;70518;51.400;7.428;2023-12-29T01:03:33;158590.38;;;17.99;50.65
49689;BME280;70518;51.400;7.428;2023-12-29T01:05:58;158581.31;;;17.95;50.96
49689;BME280;70518;51.400;7.428;2023-12-29T01:08:23;158560.59;;;17.87;51.13
49689;BME280;70518;51.400;7.428;2023-12-29T01:10:48;158560.59;;;17.87;50.93
49689;BME280;70518;51.400;7.428;2023-12-29T01:13:13;158577.38;;;17.94;51.06
49689;BME280;70518;51.400;7.428;2023-12-29T01:15:38;158581.31;;;17.95;50.90
49689;BME280;70518;51.400;7.428;2023-12-29T01:18:05;158581.31;;;17.95;51.09
49689;BME280;70518;51.400;7.428;2023-12-29T01:20:30;158556.69;;;17.86;51.01
49689;BME280;70518;51.400;7.428;2023-12-29T01:22:56;158543.72;;;17.81;51.36
49689;BME280;70518;51.400;7.428;2023-12-29T01:25:21;158568.34;;;17.90;51.23
49689;BME280;70518;51.400;7.428;2023-12-29T01:27:46;158578.69;;;17.94;51.17
49689;BME280;70518;51.400;7.428;2023-12-29T01:30:11;158612.41;;;18.07;50.91
49689;BME280;70518;51.400;7.428;2023-12-29T01:32:36;158609.78;;;18.06;50.42
49689;BME280;70518;51.400;7.428;2023-12-29T01:35:02;158616.28;;;18.09;50.91
49689;BME280;70518;51.400;7.428;2023-12-29T01:37:27;158602.03;;;18.03;50.86
49689;BME280;70518;51.400;7.428;2023-12-29T01:39:52;158551.50;;;17.84;51.47
49689;BME280;70518;51.400;7.428;2023-12-29T01:42:17;158550.19;;;17.83;51.47
49689;BME280;70518;51.400;7.428;2023-12-29T01:44:42;158560.59;;;17.87;51.45
49689;BME280;70518;51.400;7.428;2023-12-29T01:47:15;158577.38;;;17.94;51.37
49689;BME280;70518;51.400;7.428;2023-12-29T01:49:41;158569.63;;;17.91;51.35
49689;BME280;70518;51.400;7.428;2023-12-29T01:52:08;158567.06;;;17.90;51.23
49689;BME280;70518;51.400;7.428;2023-12-29T01:54:34;158565.75;;;17.89;51.54
49689;BME280;70518;51.400;7.428;2023-12-29T01:57:01;158560.59;;;17.87;51.60
49689;BME280;70518;51.400;7.428;2023-12-29T01:59:27;158565.75;;;17.89;51.79
49689;BME280;70518;51.400;7.428;2023-12-29T02:01:55;158574.84;;;17.93;51.63
49689;BME280;70518;51.400;7.428;2023-12-29T02:04:21;158554.06;;;17.85;52.06
49689;BME280;70518;51.400;7.428;2023-12-29T02:06:48;158551.50;;;17.84;52.03
49689;BME280;70518;51.400;7.428;2023-12-29T02:09:13;158517.78;;;17.70;52.55
49689;BME280;70518;51.400;7.428;2023-12-29T02:11:41;158537.25;;;17.78;52.19
49689;BME280;70518;51.400;7.428;2023-12-29T02:14:06;158556.69;;;17.86;52.38
49689;BME280;70518;51.400;7.428;2023-12-29T02:19:09;158548.91;;;17.83;53.09
49689;BME280;70518;51.400;7.428;2023-12-29T02:21:38;158533.34;;;17.76;53.35
49689;BME280;70518;51.400;7.428;2023-12-29T02:24:03;158543.72;;;17.81;53.31
49689;BME280;70518;51.400;7.428;2023-12-29T02:26:29;158563.16;;;17.88;53.30
49689;BME280;70518;51.400;7.428;2023-12-29T02:28:59;158557.97;;;17.86;54.67
49689;BME280;70518;51.400;7.428;2023-12-29T02:31:25;158523.00;;;17.72;55.06
49689;BME280;70518;51.400;7.428;2023-12-29T02:33:52;158491.91;;;17.60;55.82
49689;BME280;70518;51.400;7.428;2023-12-29T02:36:18;158507.47;;;17.66;55.73
49689;BME280;70518;51.400;7.428;2023-12-29T02:38:44;158506.16;;;17.66;56.69
49689;BME280;70518;51.400;7.428;2023-12-29T02:41:10;158525.56;;;17.73;56.54
49689;BME280;70518;51.400;7.428;2023-12-29T02:43:36;158498.38;;;17.63;57.12
49689;BME280;70518;51.400;7.428;2023-12-29T02:46:01;158465.94;;;17.50;58.15
49689;BME280;70518;51.400;7.428;2023-12-29T02:48:26;158467.25;;;17.51;57.96
49689;BME280;70518;51.400;7.428;2023-12-29T02:50:51;158475.00;;;17.54;57.87
49689;BME280;70518;51.400;7.428;2023-12-29T02:53:17;158475.00;;;17.54;58.77
49689;BME280;70518;51.400;7.428;2023-12-29T02:55:42;158488.00;;;17.59;58.46
49689;BME280;70518;51.400;7.428;2023-12-29T02:58:08;158484.13;;;17.57;59.26
49689;BME280;70518;51.400;7.428;2023-12-29T03:00:33;158486.69;;;17.58;59.35
49689;BME280;70518;51.400;7.428;2023-12-29T03:02:58;158480.22;;;17.56;59.84
49689;BME280;70518;51.400;7.428;2023-12-29T03:05:23;158469.84;;;17.52;60.08
49689;BME280;70518;51.400;7.428;2023-12-29T03:07:49;158478.94;;;17.55;60.42
49689;BME280;70518;51.400;7.428;2023-12-29T03:10:14;158500.94;;;17.64;59.68
49689;BME280;70518;51.400;7.428;2023-12-29T03:12:39;158456.84;;;17.47;60.78
49689;BME280;70518;51.400;7.428;2023-12-29T03:15:04;158463.31;;;17.49;60.91
49689;BME280;70518;51.400;7.428;2023-12-29T03:17:30;158454.31;;;17.46;60.60
49689;BME280;70518;51.400;7.428;2023-12-29T03:19:58;158454.31;;;17.46;61.08
49689;BME280;70518;51.400;7.428;2023-12-29T03:22:23;158446.53;;;17.43;61.22
49689;BME280;70518;51.400;7.428;2023-12-29T03:24:48;158433.53;;;17.38;62.05
49689;BME280;70518;51.400;7.428;2023-12-29T03:27:14;158437.44;;;17.39;61.08
49689;BME280;70518;51.400;7.428;2023-12-29T03:29:39;158419.28;;;17.32;61.59
49689;BME280;70518;51.400;7.428;2023-12-29T03:32:04;158390.81;;;17.21;62.03
49689;BME280;70518;51.400;7.428;2023-12-29T03:34:32;158383.03;;;17.18;62.14
49689;BME280;70518;51.400;7.428;2023-12-29T03:36:57;158354.56;;;17.07;63.33
49689;BME280;70518;51.400;7.428;2023-12-29T03:39:22;158363.59;;;17.10;62.40
49689;BME280;70518;51.400;7.428;2023-12-29T03:41:48;158386.91;;;17.19;62.77
49689;BME280;70518;51.400;7.428;2023-12-29T03:44:13;158393.41;;;17.22;62.19
49689;BME280;70518;51.400;7.428;2023-12-29T03:46:39;158425.75;;;17.35;61.21
49689;BME280;70518;51.400;7.428;2023-12-29T03:49:04;158441.31;;;17.41;61.19
49689;BME280;70518;51.400;7.428;2023-12-29T03:51:29;158402.44;;;17.26;61.52
49689;BME280;70518;51.400;7.428;2023-12-29T03:53:54;158440.00;;;17.40;61.07
49689;BME280;70518;51.400;7.428;2023-12-29T03:56:19;158436.16;;;17.39;61.23
49689;BME280;70518;51.400;7.428;2023-12-29T03:58:45;158445.22;;;17.42;60.97
49689;BME280;70518;51.400;7.428;2023-12-29T04:01:11;158418.00;;;17.32;61.41
49689;BME280;70518;51.400;7.428;2023-12-29T04:03:37;158430.97;;;17.37;61.10
49689;BME280;70518;51.400;7.428;2023-12-29T04:06:02;158443.91;;;17.42;60.84
49689;BME280;70518;51.400;7.428;2023-12-29T04:08:27;158441.31;;;17.41;60.42
49689;BME280;70518;51.400;7.428;2023-12-29T04:10:52;158424.47;;;17.34;60.44
49689;BME280;70518;51.400;7.428;2023-12-29T04:13:18;158371.34;;;17.13;61.67
49689;BME280;70518;51.400;7.428;2023-12-29T04:15:43;158418.00;;;17.32;60.99
49689;BME280;70518;51.400;7.428;2023-12-29T04:18:08;158443.91;;;17.42;60.26
49689;BME280;70518;51.400;7.428;2023-12-29T04:20:33;158442.63;;;17.41;60.01
49689;BME280;70518;51.400;7.428;2023-12-29T04:22:58;158446.53;;;17.43;60.30
49689;BME280;70518;51.400;7.428;2023-12-29T04:25:24;158434.84;;;17.38;60.48
49689;BME280;70518;51.400;7.428;2023-12-29T04:27:49;158411.53;;;17.29;60.80
49689;BME280;70518;51.400;7.428;2023-12-29T04:30:14;158442.63;;;17.41;59.83
49689;BME280;70518;51.400;7.428;2023-12-29T04:32:40;158468.53;;;17.51;59.34
49689;BME280;70518;51.400;7.428;2023-12-29T04:35:05;158463.31;;;17.49;59.43
49689;BME280;70518;51.400;7.428;2023-12-29T04:37:30;158412.81;;;17.30;60.09
49689;BME280;70518;51.400;7.428;2023-12-29T04:39:56;158460.75;;;17.48;59.67
49689;BME280;70518;51.400;7.428;2023-12-29T04:42:21;158462.06;;;17.49;59.62
49689;BME280;70518;51.400;7.428;2023-12-29T04:44:46;158467.25;;;17.51;60.11
49689;BME280;70518;51.400;7.428;2023-12-29T04:47:17;158463.31;;;17.49;60.35
49689;BME280;70518;51.400;7.428;2023-12-29T04:49:43;158438.75;;;17.40;61.53
49689;BME280;70518;51.400;7.428;2023-12-29T04:52:08;158455.56;;;17.46;62.15
49689;BME280;70518;51.400;7.428;2023-12-29T04:54:34;158481.53;;;17.56;62.22
49689;BME280;70518;51.400;7.428;2023-12-29T04:56:59;158464.63;;;17.50;63.16
49689;BME280;70518;51.400;7.428;2023-12-29T04:59:24;158481.53;;;17.56;62.72
49689;BME280;70518;51.400;7.428;2023-12-29T05:01:49;158481.53;;;17.56;62.74
49689;BME280;70518;51.400;7.428;2023-12-29T05:04:14;158451.69;;;17.45;63.05
49689;BME280;70518;51.400;7.428;2023-12-29T05:06:41;158458.16;;;17.47;62.68
49689;BME280;70518;51.400;7.428;2023-12-29T05:09:07;158460.75;;;17.48;62.42
49689;BME280;70518;51.400;7.428;2023-12-29T05:11:32;158458.16;;;17.47;62.77
49689;BME280;70518;51.400;7.428;2023-12-29T05:13:57;158456.84;;;17.47;61.91
49689;BME280;70518;51.400;7.428;2023-12-29T05:16:22;158449.09;;;17.44;61.60
49689;BME280;70518;51.400;7.428;2023-12-29T05:18:47;158432.22;;;17.37;62.29
49689;BME280;70518;51.400;7.428;2023-12-29T05:21:18;158436.16;;;17.39;61.91
49689;BME280;70518;51.400;7.428;2023-12-29T05:23:44;158418.00;;;17.32;61.10
49689;BME280;70518;51.400;7.428;2023-12-29T05:26:13;158406.34;;;17.27;61.38
49689;BME280;70518;51.400;7.428;2023-12-29T05:28:38;158425.75;;;17.35;60.96
49689;BME280;70518;51.400;7.428;2023-12-29T05:31:04;158437.44;;;17.39;60.70
49689;BME280;70518;51.400;7.428;2023-12-29T05:33:32;158411.53;;;17.29;60.85
49689;BME280;70518;51.400;7.428;2023-12-29T05:35:57;158447.78;;;17.43;60.44
49689;BME280;70518;51.400;7.428;2023-12-29T05:38:23;158455.56;;;17.46;60.26
49689;BME280;70518;51.400;7.428;2023-12-29T05:40:48;158437.44;;;17.39;60.04
49689;BME280;70518;51.400;7.428;2023-12-29T05:43:14;158443.91;;;17.42;59.64
49689;BME280;70518;51.400;7.428;2023-12-29T05:45:39;158442.63;;;17.41;59.99
49689;BME280;70518;51.400;7.428;2023-12-29T05:48:05;158443.91;;;17.42;59.62
49689;BME280;70518;51.400;7.428;2023-12-29T05:50:30;158463.31;;;17.49;59.48
49689;BME280;70518;51.400;7.428;2023-12-29T05:52:56;158437.44;;;17.39;58.87
49689;BME280;70518;51.400;7.428;2023-12-29T05:55:21;158456.84;;;17.47;58.67
49689;BME280;70518;51.400;7.428;2023-12-29T05:57:46;158465.94;;;17.50;58.40
49689;BME280;70518;51.400;7.428;2023-12-29T06:00:11;158467.25;;;17.51;58.39
49689;BME280;70518;51.400;7.428;2023-12-29T06:02:40;158462.06;;;17.49;58.15
49689;BME280;70518;51.400;7.428;2023-12-29T06:05:05;158473.72;;;17.53;58.24
49689;BME280;70518;51.400;7.428;2023-12-29T06:07:31;158482.84;;;17.57;57.53
49689;BME280;70518;51.400;7.428;2023-12-29T06:09:56;158490.63;;;17.60;57.77
49689;BME280;70518;51.400;7.428;2023-12-29T06:12:21;158506.16;;;17.66;57.22
49689;BME280;70518;51.400;7.428;2023-12-29T06:14:46;158485.41;;;17.58;57.32
49689;BME280;70518;51.400;7.428;2023-12-29T06:17:11;158485.41;;;17.58;57.40
49689;BME280;70518;51.400;7.428;2023-12-29T06:19:37;158498.38;;;17.63;57.29
49689;BME280;70518;51.400;7.428;2023-12-29T06:22:02;158498.38;;;17.63;56.94
49689;BME280;70518;51.400;7.428;2023-12-29T06:24:27;158480.22;;;17.56;57.45
49689;BME280;70518;51.400;7.428;2023-12-29T06:26:52;158488.00;;;17.59;57.33
49689;BME280;70518;51.400;7.428;2023-12-29T06:29:18;158480.22;;;17.56;57.02
49689;BME280;70518;51.400;7.428;2023-12-29T06:31:43;158481.53;;;17.56;56.85
49689;BME280;70518;51.400;7.428;2023-12-29T06:34:08;158460.75;;;17.48;56.85
49689;BME280;70518;51.400;7.428;2023-12-29T06:36:33;158453.00;;;17.45;56.92
49689;BME280;70518;51.400;7.428;2023-12-29T06:38:59;158471.09;;;17.52;56.77
49689;BME280;70518;51.400;7.428;2023-12-29T06:41:24;158488.00;;;17.59;56.96
49689;BME280;70518;51.400;7.428;2023-12-29T06:43:50;158489.31;;;17.59;56.58
49689;BME280;70518;51.400;7.428;2023-12-29T06:46:15;158473.72;;;17.53;56.75
49689;BME280;70518;51.400;7.428;2023-12-29T06:48:40;158491.91;;;17.60;56.30
49689;BME280;70518;51.400;7.428;2023-12-29T06:51:06;158495.78;;;17.62;56.45
49689;BME280;70518;51.400;7.428;2023-12-29T06:53:32;158480.22;;;17.56;56.50
49689;BME280;70518;51.400;7.428;2023-12-29T06:55:58;158482.84;;;17.57;56.27
49689;BME280;70518;51.400;7.428;2023-12-29T06:58:23;158468.53;;;17.51;56.82
49689;BME280;70518;51.400;7.428;2023-12-29T07:00:48;158491.91;;;17.60;56.17
49689;BME280;70518;51.400;7.428;2023-12-29T07:03:14;158494.47;;;17.61;56.23
49689;BME280;70518;51.400;7.428;2023-12-29T07:05:39;158515.25;;;17.69;55.81
49689;BME280;70518;51.400;7.428;2023-12-29T07:08:04;158521.72;;;17.72;55.66
49689;BME280;70518;51.400;7.428;2023-12-29T07:10:30;158502.25;;;17.64;56.12
49689;BME280;70518;51.400;7.428;2023-12-29T07:12:55;158517.78;;;17.70;55.61
49689;BME280;70518;51.400;7.428;2023-12-29T07:15:20;158526.88;;;17.74;55.67
49689;BME280;70518;51.400;7.428;2023-12-29T07:17:47;158512.63;;;17.68;55.79
49689;BME280;70518;51.400;7.428;2023-12-29T07:20:12;158532.03;;;17.76;56.03
49689;BME280;70518;51.400;7.428;2023-12-29T07:22:38;158529.47;;;17.75;56.07
49689;BME280;70518;51.400;7.428;2023-12-29T07:25:03;158493.16;;;17.61;56.41
49689;BME280;70518;51.400;7.428;2023-12-29T07:27:28;158511.31;;;17.68;56.27
49689;BME280;70518;51.400;7.428;2023-12-29T07:29:53;158537.25;;;17.78;56.60
49689;BME280;70518;51.400;7.428;2023-12-29T07:32:19;158542.44;;;17.80;57.55
49689;BME280;70518;51.400;7.428;2023-12-29T07:34:44;158541.13;;;17.80;58.01
49689;BME280;70518;51.400;7.428;2023-12-29T07:37:09;158533.34;;;17.76;58.79
49689;BME280;70518;51.400;7.428;2023-12-29T07:39:35;158521.72;;;17.72;59.35
49689;BME280;70518;51.400;7.428;2023-12-29T07:42:01;158525.56;;;17.73;60.04
49689;BME280;70518;51.400;7.428;2023-12-29T07:44:26;158517.78;;;17.70;60.03
49689;BME280;70518;51.400;7.428;2023-12-29T07:46:51;158538.56;;;17.79;60.17
49689;BME280;70518;51.400;7.428;2023-12-29T07:49:16;158508.72;;;17.67;60.66
49689;BME280;70518;51.400;7.428;2023-12-29T07:51:42;158506.16;;;17.66;60.22
49689;BME280;70518;51.400;7.428;2023-12-29T07:54:08;158489.31;;;17.59;60.80
49689;BME280;70518;51.400;7.428;2023-12-29T07:56:33;158460.75;;;17.48;61.64
49689;BME280;70518;51.400;7.428;2023-12-29T07:58:59;158451.69;;;17.45;62.17
49689;BME280;70518;51.400;7.428;2023-12-29T08:01:24;158434.84;;;17.38;62.77
49689;BME280;70518;51.400;7.428;2023-12-29T08:03:50;158441.31;;;17.41;62.51
49689;BME280;70518;51.400;7.428;2023-12-29T08:06:15;158432.22;;;17.37;62.79
49689;BME280;70518;51.400;7.428;2023-12-29T08:08:41;158419.28;;;17.32;63.26
49689;BME280;70518;51.400;7.428;2023-12-29T08:11:12;158445.22;;;17.42;63.59
49689;BME280;70518;51.400;7.428;2023-12-29T08:13:37;158427.06;;;17.35;63.81
49689;BME280;70518;51.400;7.428;2023-12-29T08:16:02;158430.97;;;17.37;63.77
49689;BME280;70518;51.400;7.428;2023-12-29T08:18:27;158411.53;;;17.29;64.33
49689;BME280;70518;51.400;7.428;2023-12-29T08:20:53;158436.16;;;17.39;63.75
49689;BME280;70518;51.400;7.428;2023-12-29T08:23:18;158418.00;;;17.32;64.56
49689;BME280;70518;51.400;7.428;2023-12-29T08:25:43;158416.69;;;17.31;64.27
49689;BME280;70518;51.400;7.428;2023-12-29T08:28:08;158392.13;;;17.21;64.76
49689;BME280;70518;51.400;7.428;2023-12-29T08:30:37;158388.19;;;17.20;65.62
49689;BME280;70518;51.400;7.428;2023-12-29T08:33:03;158386.91;;;17.19;65.40
49689;BME280;70518;51.400;7.428;2023-12-29T08:35:29;158366.19;;;17.11;65.32
49689;BME280;70518;51.400;7.428;2023-12-29T08:37:54;158380.44;;;17.17;65.16
49689;BME280;70518;51.400;7.428;2023-12-29T08:40:19;158388.19;;;17.20;65.06
49689;BME280;70518;51.400;7.428;2023-12-29T08:42:44;158383.03;;;17.18;65.70
49689;BME280;70518;51.400;7.428;2023-12-29T08:45:10;158389.50;;;17.20;65.78
49689;BME280;70518;51.400;7.428;2023-12-29T08:47:35;158393.41;;;17.22;65.39
49689;BME280;70518;51.400;7.428;2023-12-29T08:50:00;158394.66;;;17.22;65.17
49689;BME280;70518;51.400;7.428;2023-12-29T08:52:27;158371.34;;;17.13;66.30
49689;BME280;70518;51.400;7.428;2023-12-29T08:54:52;158383.03;;;17.18;65.88
49689;BME280;70518;51.400;7.428;2023-12-29T08:57:17;158376.56;;;17.15;66.26
49689;BME280;70518;51.400;7.428;2023-12-29T08:59:42;158388.19;;;17.20;65.34
49689;BME280;70518;51.400;7.428;2023-12-29T09:02:07;158386.91;;;17.19;66.79
49689;BME280;70518;51.400;7.428;2023-12-29T09:04:33;158364.88;;;17.11;66.69
49689;BME280;70518;51.400;7.428;2023-12-29T09:06:58;158392.13;;;17.21;66.21
49689;BME280;70518;51.400;7.428;2023-12-29T09:09:23;158394.66;;;17.22;66.36
49689;BME280;70518;51.400;7.428;2023-12-29T09:11:48;158370.09;;;17.13;67.85
49689;BME280;70518;51.400;7.428;2023-12-29T09:14:14;158406.34;;;17.27;66.51
49689;BME280;70518;51.400;7.428;2023-12-29T09:16:39;158418.00;;;17.32;66.90
49689;BME280;70518;51.400;7.428;2023-12-29T09:19:06;158420.59;;;17.33;66.73
49689;BME280;70518;51.400;7.428;2023-12-29T09:21:31;158443.91;;;17.42;66.90
49689;BME280;70518;51.400;7.428;2023-12-29T09:23:56;158445.22;;;17.42;67.20
49689;BME280;70518;51.400;7.428;2023-12-29T09:26:21;158430.97;;;17.37;67.01
49689;BME280;70518;51.400;7.428;2023-12-29T09:28:47;158445.22;;;17.42;66.53
49689;BME280;70518;51.400;7.428;2023-12-29T09:31:12;158450.38;;;17.44;66.39
49689;BME280;70518;51.400;7.428;2023-12-29T09:33:37;158410.22;;;17.29;66.98
49689;BME280;70518;51.400;7.428;2023-12-29T09:36:03;158403.75;;;17.26;67.91
49689;BME280;70518;51.400;7.428;2023-12-29T09:38:28;158437.44;;;17.39;67.52
49689;BME280;70518;51.400;7.428;2023-12-29T09:40:54;158438.75;;;17.40;67.58
49689;BME280;70518;51.400;7.428;2023-12-29T09:43:20;158460.75;;;17.48;66.69
49689;BME280;70518;51.400;7.428;2023-12-29T09:45:45;158453.00;;;17.45;67.24
49689;BME280;70518;51.400;7.428;2023-12-29T09:48:11;158433.53;;;17.38;67.37
49689;BME280;70518;51.400;7.428;2023-12-29T09:50:38;158421.91;;;17.33;67.90
49689;BME280;70518;51.400;7.428;2023-12-29T09:53:03;158419.28;;;17.32;68.02
49689;BME280;70518;51.400;7.428;2023-12-29T09:55:29;158427.06;;;17.35;68.11
49689;BME280;70518;51.400;7.428;2023-12-29T09:57:55;158424.47;;;17.34;67.75
49689;BME280;70518;51.400;7.428;2023-12-29T10:00:22;158403.75;;;17.26;67.29
49689;BME280;70518;51.400;7.428;2023-12-29T10:02:48;158429.69;;;17.36;67.42
49689;BME280;70518;51.400;7.428;2023-12-29T10:05:16;158423.22;;;17.34;68.06
49689;BME280;70518;51.400;7.428;2023-12-29T10:07:41;158419.28;;;17.32;68.16
49689;BME280;70518;51.400;7.428;2023-12-29T10:10:07;158443.91;;;17.42;68.19
49689;BME280;70518;51.400;7.428;2023-12-29T10:12:37;158451.69;;;17.45;68.21
49689;BME280;70518;51.400;7.428;2023-12-29T10:15:12;158451.69;;;17.45;68.21
49689;BME280;70518;51.400;7.428;2023-12-29T10:17:48;158471.09;;;17.52;68.04
49689;BME280;70518;51.400;7.428;2023-12-29T10:23:05;158463.31;;;17.49;68.80
49689;BME280;70518;51.400;7.428;2023-12-29T10:25:33;158500.94;;;17.64;67.63
49689;BME280;70518;51.400;7.428;2023-12-29T10:27:58;158503.56;;;17.65;68.17
49689;BME280;70518;51.400;7.428;2023-12-29T10:30:24;158498.38;;;17.63;67.75
49689;BME280;70518;51.400;7.428;2023-12-29T10:32:49;158447.78;;;17.43;69.64
49689;BME280;70518;51.400;7.428;2023-12-29T10:35:15;158445.22;;;17.42;69.57
49689;BME280;70518;51.400;7.428;2023-12-29T10:37:40;158443.91;;;17.42;69.44
49689;BME280;70518;51.400;7.428;2023-12-29T10:40:07;158440.00;;;17.40;68.98
49689;BME280;70518;51.400;7.428;2023-12-29T10:42:32;158455.56;;;17.46;68.19
49689;BME280;70518;51.400;7.428;2023-12-29T10:45:08;158456.84;;;17.47;68.25
49689;BME280;70518;51.400;7.428;2023-12-29T10:47:35;158462.06;;;17.49;68.47
49689;BME280;70518;51.400;7.428;2023-12-29T10:50:01;158478.94;;;17.55;68.61
49689;BME280;70518;51.400;7.428;2023-12-29T10:52:27;158533.34;;;17.76;67.62
49689;BME280;70518;51.400;7.428;2023-12-29T10:55:03;158552.81;;;17.84;67.82
49689;BME280;70518;51.400;7.428;2023-12-29T10:57:28;158554.06;;;17.85;67.99
49689;BME280;70518;51.400;7.428;2023-12-29T10:59:54;158551.50;;;17.84;67.40
49689;BME280;70518;51.400;7.428;2023-12-29T11:02:20;158524.28;;;17.73;68.44
49689;BME280;70518;51.400;7.428;2023-12-29T11:04:45;158521.72;;;17.72;68.87
49689;BME280;70518;51.400;7.428;2023-12-29T11:07:11;158525.56;;;17.73;69.07
49689;BME280;70518;51.400;7.428;2023-12-29T11:09:36;158535.94;;;17.77;69.00
49689;BME280;70518;51.400;7.428;2023-12-29T11:12:03;158532.03;;;17.76;68.34
49689;BME280;70518;51.400;7.428;2023-12-29T11:14:28;158525.56;;;17.73;68.84
49689;BME280;70518;51.400;7.428;2023-12-29T11:16:54;158498.38;;;17.63;69.41
49689;BME280;70518;51.400;7.428;2023-12-29T11:19:19;158539.81;;;17.79;68.44
49689;BME280;70518;51.400;7.428;2023-12-29T11:21:45;158547.59;;;17.82;67.67
49689;BME280;70518;51.400;7.428;2023-12-29T11:24:11;158535.94;;;17.77;68.69
49689;BME280;70518;51.400;7.428;2023-12-29T11:26:36;158545.03;;;17.81;68.69
49689;BME280;70518;51.400;7.428;2023-12-29T11:29:02;158556.69;;;17.86;68.51
49689;BME280;70518;51.400;7.428;2023-12-29T11:31:29;158569.63;;;17.91;68.62
49689;BME280;70518;51.400;7.428;2023-12-29T11:34:00;158585.16;;;17.97;68.71
49689;BME280;70518;51.400;7.428;2023-12-29T11:36:30;158581.31;;;17.95;68.54
49689;BME280;70518;51.400;7.428;2023-12-29T11:38:59;158583.91;;;17.96;68.56
49689;BME280;70518;51.400;7.428;2023-12-29T11:41:43;158590.38;;;17.99;68.40
49689;BME280;70518;51.400;7.428;2023-12-29T11:44:12;158568.34;;;17.90;68.72
49689;BME280;70518;51.400;7.428;2023-12-29T11:46:49;158561.84;;;17.88;68.87
49689;BME280;70518;51.400;7.428;2023-12-29T11:49:14;158577.38;;;17.94;68.25
49689;BME280;70518;51.400;7.428;2023-12-29T11:51:40;158589.09;;;17.98;67.91
49689;BME280;70518;51.400;7.428;2023-12-29T11:54:05;158611.09;;;18.07;67.58
49689;BME280;70518;51.400;7.428;2023-12-29T11:56:31;158617.56;;;18.09;67.00
49689;BME280;70518;51.400;7.428;2023-12-29T11:59:11;158613.72;;;18.08;66.88
49689;BME280;70518;51.400;7.428;2023-12-29T12:01:36;158629.25;;;18.14;66.48
49689;BME280;70518;51.400;7.428;2023-12-29T12:04:01;158622.75;;;18.11;66.68
49689;BME280;70518;51.400;7.428;2023-12-29T12:06:37;158625.34;;;18.12;66.58
49689;BME280;70518;51.400;7.428;2023-12-29T12:09:15;158585.16;;;17.97;67.24
49689;BME280;70518;51.400;7.428;2023-12-29T12:11:41;158612.41;;;18.07;67.09
49689;BME280;70518;51.400;7.428;2023-12-29T12:14:06;158625.34;;;18.12;66.59
49689;BME280;70518;51.400;7.428;2023-12-29T12:19:10;158642.22;;;18.19;66.59
49689;BME280;70518;51.400;7.428;2023-12-29T12:21:35;158615.00;;;18.08;67.66
49689;BME280;70518;51.400;7.428;2023-12-29T12:24:03;158640.91;;;18.18;67.78
49689;BME280;70518;51.400;7.428;2023-12-29T12:26:28;158647.38;;;18.21;68.14
49689;BME280;70518;51.400;7.428;2023-12-29T12:28:55;158638.31;;;18.17;68.84
49689;BME280;70518;51.400;7.428;2023-12-29T12:31:20;158678.50;;;18.33;68.34
49689;BME280;70518;51.400;7.428;2023-12-29T12:33:55;158681.09;;;18.34;68.16
49689;BME280;70518;51.400;7.428;2023-12-29T12:36:20;158682.41;;;18.35;68.22
49689;BME280;70518;51.400;7.428;2023-12-29T12:38:56;158708.28;;;18.45;67.53
49689;BME280;70518;51.400;7.428;2023-12-29T12:41:21;158709.59;;;18.45;67.79
49689;BME280;70518;51.400;7.428;2023-12-29T12:43:52;158708.28;;;18.45;67.75
49689;BME280;70518;51.400;7.428;2023-12-29T12:46:22;158705.75;;;18.44;67.80
49689;BME280;70518;51.400;7.428;2023-12-29T12:48:49;158695.34;;;18.40;67.84
49689;BME280;70518;51.400;7.428;2023-12-29T12:51:15;158735.59;;;18.55;66.96